sensor_id;sensor_type;location;lat;lon;timestamp;P1;durP1;ratioP1;P2;durP2;ratioP2
25341;SDS011;13298;48.792;9.154;2023-05-14T00:02:21;9.15;;;8.23;;
25341;SDS011;13298;48.792;9.154;2023-05-14T00:04:47;10.85;;;8.35;;
25341;SDS011;13298;48.792;9.154;2023-05-14T00:07:13;9.68;;;7.85;;
25341;SDS011;13298;48.792;9.154;2023-05-14T00:09:38;9.85;;;8.27;;
25341;SDS011;13298;48.792;9.154;2023-05-14T00:12:04;10.48;;;8.52;;
25341;SDS011;13298;48.792;9.154;2023-05-14T00:14:30;9.93;;;8.00;;
25341;SDS011;13298;48.792;9.154;2023-05-14T00:16:56;10.65;;;8.18;;
25341;SDS011;13298;48.792;9.154;2023-05-14T00:19:23;9.50;;;8.50;;
25341;SDS011;13298;48.792;9.154;2023-05-14T00:21:49;10.80;;;8.57;;
25341;SDS011;13298;48.792;9.154;2023-05-14T00:24:15;9.50;;;7.90;;
25341;SDS011;13298;48.792;9.154;2023-05-14T00:26:40;9.07;;;7.10;;
25341;SDS011;13298;48.792;9.154;2023-05-14T00:29:06;9.27;;;7.82;;
25341;SDS011;13298;48.792;9.154;2023-05-14T00:31:32;12.38;;;9.13;;
25341;SDS011;13298;48.792;9.154;2023-05-14T00:33:57;11.07;;;8.02;;
25341;SDS011;13298;48.792;9.154;2023-05-14T00:36:23;11.38;;;8.68;;
25341;SDS011;13298;48.792;9.154;2023-05-14T00:38:49;11.25;;;8.63;;
25341;SDS011;13298;48.792;9.154;2023-05-14T00:41:15;8.77;;;7.55;;
25341;SDS011;13298;48.792;9.154;2023-05-14T00:43:40;8.52;;;7.22;;
25341;SDS011;13298;48.792;9.154;2023-05-14T00:46:06;10.35;;;8.85;;
25341;SDS011;13298;48.792;9.154;2023-05-14T00:48:32;10.55;;;8.90;;
25341;SDS011;13298;48.792;9.154;2023-05-14T00:50:58;10.73;;;8.10;;
25341;SDS011;13298;48.792;9.154;2023-05-14T00:53:23;9.48;;;7.63;;
25341;SDS011;13298;48.792;9.154;2023-05-14T00:55:49;10.85;;;7.43;;
25341;SDS011;13298;48.792;9.154;2023-05-14T00:58:15;11.07;;;7.90;;
25341;SDS011;13298;48.792;9.154;2023-05-14T01:00:43;11.10;;;9.05;;
25341;SDS011;13298;48.792;9.154;2023-05-14T01:03:08;9.70;;;7.95;;
25341;SDS011;13298;48.792;9.154;2023-05-14T01:11:39;11.20;;;8.55;;
25341;SDS011;13298;48.792;9.154;2023-05-14T01:14:19;9.60;;;8.48;;
25341;SDS011;13298;48.792;9.154;2023-05-14T01:16:51;9.20;;;7.78;;
25341;SDS011;13298;48.792;9.154;2023-05-14T01:19:32;8.98;;;8.07;;
25341;SDS011;13298;48.792;9.154;2023-05-14T01:22:04;9.90;;;8.38;;
25341;SDS011;13298;48.792;9.154;2023-05-14T01:24:30;11.88;;;8.43;;
25341;SDS011;13298;48.792;9.154;2023-05-14T01:26:57;10.18;;;8.45;;
25341;SDS011;13298;48.792;9.154;2023-05-14T01:29:32;10.63;;;8.70;;
25341;SDS011;13298;48.792;9.154;2023-05-14T01:31:58;10.23;;;8.30;;
25341;SDS011;13298;48.792;9.154;2023-05-14T01:34:25;10.82;;;8.23;;
25341;SDS011;13298;48.792;9.154;2023-05-14T01:36:54;9.48;;;7.93;;
25341;SDS011;13298;48.792;9.154;2023-05-14T01:39:21;11.80;;;8.98;;
25341;SDS011;13298;48.792;9.154;2023-05-14T01:41:49;12.30;;;8.82;;
25341;SDS011;13298;48.792;9.154;2023-05-14T01:44:16;9.65;;;8.50;;
25341;SDS011;13298;48.792;9.154;2023-05-14T01:46:42;10.10;;;8.38;;
25341;SDS011;13298;48.792;9.154;2023-05-14T01:49:08;9.82;;;8.80;;
25341;SDS011;13298;48.792;9.154;2023-05-14T01:51:34;10.30;;;8.73;;
25341;SDS011;13298;48.792;9.154;2023-05-14T01:53:59;11.75;;;9.70;;
25341;SDS011;13298;48.792;9.154;2023-05-14T01:56:25;12.88;;;9.43;;
25341;SDS011;13298;48.792;9.154;2023-05-14T01:58:51;10.45;;;8.85;;
25341;SDS011;13298;48.792;9.154;2023-05-14T02:01:16;8.73;;;7.82;;
25341;SDS011;13298;48.792;9.154;2023-05-14T02:03:42;10.57;;;8.63;;
25341;SDS011;13298;48.792;9.154;2023-05-14T02:06:08;10.27;;;9.15;;
25341;SDS011;13298;48.792;9.154;2023-05-14T02:08:33;17.30;;;8.82;;
25341;SDS011;13298;48.792;9.154;2023-05-14T02:10:59;10.32;;;8.68;;
25341;SDS011;13298;48.792;9.154;2023-05-14T02:13:25;9.73;;;8.27;;
25341;SDS011;13298;48.792;9.154;2023-05-14T02:15:51;10.10;;;9.10;;
25341;SDS011;13298;48.792;9.154;2023-05-14T02:18:16;10.20;;;8.30;;
25341;SDS011;13298;48.792;9.154;2023-05-14T02:20:42;11.93;;;9.35;;
25341;SDS011;13298;48.792;9.154;2023-05-14T02:23:08;11.07;;;9.63;;
25341;SDS011;13298;48.792;9.154;2023-05-14T02:25:34;10.57;;;8.95;;
25341;SDS011;13298;48.792;9.154;2023-05-14T02:27:59;11.30;;;9.23;;
25341;SDS011;13298;48.792;9.154;2023-05-14T02:30:25;10.95;;;9.18;;
25341;SDS011;13298;48.792;9.154;2023-05-14T02:32:51;14.32;;;10.48;;
25341;SDS011;13298;48.792;9.154;2023-05-14T02:35:17;11.18;;;9.93;;
25341;SDS011;13298;48.792;9.154;2023-05-14T02:37:42;12.00;;;9.85;;
25341;SDS011;13298;48.792;9.154;2023-05-14T02:40:08;13.77;;;9.02;;
25341;SDS011;13298;48.792;9.154;2023-05-14T02:42:34;10.10;;;8.75;;
25341;SDS011;13298;48.792;9.154;2023-05-14T02:45:00;10.88;;;8.68;;
25341;SDS011;13298;48.792;9.154;2023-05-14T02:47:26;12.10;;;9.57;;
25341;SDS011;13298;48.792;9.154;2023-05-14T02:49:51;10.40;;;9.13;;
25341;SDS011;13298;48.792;9.154;2023-05-14T02:52:17;12.32;;;9.57;;
25341;SDS011;13298;48.792;9.154;2023-05-14T02:54:43;10.98;;;9.10;;
25341;SDS011;13298;48.792;9.154;2023-05-14T02:57:08;10.45;;;8.55;;
25341;SDS011;13298;48.792;9.154;2023-05-14T02:59:34;11.35;;;8.85;;
25341;SDS011;13298;48.792;9.154;2023-05-14T03:02:00;9.48;;;8.50;;
25341;SDS011;13298;48.792;9.154;2023-05-14T03:04:25;11.50;;;9.85;;
25341;SDS011;13298;48.792;9.154;2023-05-14T03:06:51;14.07;;;9.52;;
25341;SDS011;13298;48.792;9.154;2023-05-14T03:09:17;15.02;;;11.48;;
25341;SDS011;13298;48.792;9.154;2023-05-14T03:11:43;14.50;;;11.00;;
25341;SDS011;13298;48.792;9.154;2023-05-14T03:14:09;12.40;;;10.02;;
25341;SDS011;13298;48.792;9.154;2023-05-14T03:16:35;12.43;;;9.90;;
25341;SDS011;13298;48.792;9.154;2023-05-14T03:19:01;13.73;;;11.57;;
25341;SDS011;13298;48.792;9.154;2023-05-14T03:21:26;12.57;;;11.27;;
25341;SDS011;13298;48.792;9.154;2023-05-14T03:23:52;13.65;;;11.02;;
25341;SDS011;13298;48.792;9.154;2023-05-14T03:26:18;13.40;;;11.00;;
25341;SDS011;13298;48.792;9.154;2023-05-14T03:28:43;11.63;;;9.98;;
25341;SDS011;13298;48.792;9.154;2023-05-14T03:31:09;12.07;;;10.57;;
25341;SDS011;13298;48.792;9.154;2023-05-14T03:33:35;12.80;;;10.27;;
25341;SDS011;13298;48.792;9.154;2023-05-14T03:36:01;11.73;;;9.18;;
25341;SDS011;13298;48.792;9.154;2023-05-14T03:38:26;10.73;;;9.38;;
25341;SDS011;13298;48.792;9.154;2023-05-14T03:40:52;12.85;;;10.88;;
25341;SDS011;13298;48.792;9.154;2023-05-14T03:43:18;15.68;;;11.30;;
25341;SDS011;13298;48.792;9.154;2023-05-14T03:45:44;12.60;;;10.98;;
25341;SDS011;13298;48.792;9.154;2023-05-14T03:48:10;12.30;;;10.68;;
25341;SDS011;13298;48.792;9.154;2023-05-14T03:50:35;13.00;;;10.70;;
25341;SDS011;13298;48.792;9.154;2023-05-14T03:53:01;17.73;;;11.93;;
25341;SDS011;13298;48.792;9.154;2023-05-14T03:55:27;14.15;;;12.00;;
25341;SDS011;13298;48.792;9.154;2023-05-14T03:57:52;13.45;;;10.77;;
25341;SDS011;13298;48.792;9.154;2023-05-14T04:00:18;14.10;;;11.30;;
25341;SDS011;13298;48.792;9.154;2023-05-14T04:02:44;11.48;;;9.93;;
25341;SDS011;13298;48.792;9.154;2023-05-14T04:05:10;11.75;;;9.85;;
25341;SDS011;13298;48.792;9.154;2023-05-14T04:07:35;11.10;;;9.30;;
25341;SDS011;13298;48.792;9.154;2023-05-14T04:10:01;12.68;;;11.32;;
25341;SDS011;13298;48.792;9.154;2023-05-14T04:12:28;11.73;;;9.65;;
25341;SDS011;13298;48.792;9.154;2023-05-14T04:14:53;15.40;;;10.88;;
25341;SDS011;13298;48.792;9.154;2023-05-14T04:17:19;12.13;;;9.30;;
25341;SDS011;13298;48.792;9.154;2023-05-14T04:19:45;11.48;;;8.98;;
25341;SDS011;13298;48.792;9.154;2023-05-14T04:22:10;11.32;;;8.65;;
25341;SDS011;13298;48.792;9.154;2023-05-14T04:24:36;11.80;;;9.45;;
25341;SDS011;13298;48.792;9.154;2023-05-14T04:27:02;11.77;;;9.98;;
25341;SDS011;13298;48.792;9.154;2023-05-14T04:29:28;13.85;;;9.88;;
25341;SDS011;13298;48.792;9.154;2023-05-14T04:31:54;11.57;;;10.00;;
25341;SDS011;13298;48.792;9.154;2023-05-14T04:34:20;12.70;;;10.13;;
25341;SDS011;13298;48.792;9.154;2023-05-14T04:36:45;13.82;;;9.73;;
25341;SDS011;13298;48.792;9.154;2023-05-14T04:39:11;11.07;;;9.25;;
25341;SDS011;13298;48.792;9.154;2023-05-14T04:41:37;12.95;;;10.50;;
25341;SDS011;13298;48.792;9.154;2023-05-14T04:44:03;12.38;;;10.73;;
25341;SDS011;13298;48.792;9.154;2023-05-14T04:46:28;14.00;;;9.52;;
25341;SDS011;13298;48.792;9.154;2023-05-14T04:48:55;13.05;;;10.63;;
25341;SDS011;13298;48.792;9.154;2023-05-14T04:51:21;12.15;;;9.98;;
25341;SDS011;13298;48.792;9.154;2023-05-14T04:53:47;12.98;;;10.13;;
25341;SDS011;13298;48.792;9.154;2023-05-14T04:56:13;13.57;;;10.27;;
25341;SDS011;13298;48.792;9.154;2023-05-14T04:58:38;13.48;;;10.80;;
25341;SDS011;13298;48.792;9.154;2023-05-14T05:01:04;13.18;;;10.63;;
25341;SDS011;13298;48.792;9.154;2023-05-14T05:03:30;12.48;;;10.45;;
25341;SDS011;13298;48.792;9.154;2023-05-14T05:05:56;12.55;;;9.75;;
25341;SDS011;13298;48.792;9.154;2023-05-14T05:08:21;13.05;;;9.73;;
25341;SDS011;13298;48.792;9.154;2023-05-14T05:10:47;14.90;;;10.82;;
25341;SDS011;13298;48.792;9.154;2023-05-14T05:13:13;13.15;;;9.85;;
25341;SDS011;13298;48.792;9.154;2023-05-14T05:15:40;13.98;;;10.63;;
25341;SDS011;13298;48.792;9.154;2023-05-14T05:18:07;14.00;;;11.15;;
25341;SDS011;13298;48.792;9.154;2023-05-14T05:20:33;12.15;;;9.85;;
25341;SDS011;13298;48.792;9.154;2023-05-14T05:22:58;11.02;;;8.95;;
25341;SDS011;13298;48.792;9.154;2023-05-14T05:25:24;13.73;;;10.82;;
25341;SDS011;13298;48.792;9.154;2023-05-14T05:27:51;12.18;;;9.32;;
25341;SDS011;13298;48.792;9.154;2023-05-14T05:30:16;12.82;;;10.35;;
25341;SDS011;13298;48.792;9.154;2023-05-14T05:32:42;11.02;;;9.48;;
25341;SDS011;13298;48.792;9.154;2023-05-14T05:35:08;12.20;;;10.38;;
25341;SDS011;13298;48.792;9.154;2023-05-14T05:37:34;12.15;;;9.02;;
25341;SDS011;13298;48.792;9.154;2023-05-14T05:39:59;11.63;;;8.23;;
25341;SDS011;13298;48.792;9.154;2023-05-14T05:42:25;11.63;;;9.20;;
25341;SDS011;13298;48.792;9.154;2023-05-14T05:44:51;9.10;;;7.90;;
25341;SDS011;13298;48.792;9.154;2023-05-14T05:47:17;11.27;;;8.30;;
25341;SDS011;13298;48.792;9.154;2023-05-14T05:49:42;11.57;;;9.32;;
25341;SDS011;13298;48.792;9.154;2023-05-14T05:52:08;11.00;;;8.90;;
25341;SDS011;13298;48.792;9.154;2023-05-14T05:54:34;11.25;;;8.73;;
25341;SDS011;13298;48.792;9.154;2023-05-14T05:57:00;10.15;;;8.45;;
25341;SDS011;13298;48.792;9.154;2023-05-14T05:59:25;10.98;;;8.65;;
25341;SDS011;13298;48.792;9.154;2023-05-14T06:01:51;10.43;;;8.05;;
25341;SDS011;13298;48.792;9.154;2023-05-14T06:04:17;10.35;;;8.70;;
25341;SDS011;13298;48.792;9.154;2023-05-14T06:06:42;10.65;;;8.55;;
25341;SDS011;13298;48.792;9.154;2023-05-14T06:09:08;9.38;;;8.32;;
25341;SDS011;13298;48.792;9.154;2023-05-14T06:11:34;9.60;;;7.65;;
25341;SDS011;13298;48.792;9.154;2023-05-14T06:14:00;10.50;;;8.65;;
25341;SDS011;13298;48.792;9.154;2023-05-14T06:16:25;11.60;;;8.90;;
25341;SDS011;13298;48.792;9.154;2023-05-14T06:18:52;9.40;;;7.85;;
25341;SDS011;13298;48.792;9.154;2023-05-14T06:21:19;11.45;;;9.20;;
25341;SDS011;13298;48.792;9.154;2023-05-14T06:23:45;10.60;;;8.57;;
25341;SDS011;13298;48.792;9.154;2023-05-14T06:26:10;8.85;;;7.78;;
25341;SDS011;13298;48.792;9.154;2023-05-14T06:28:36;12.02;;;8.07;;
25341;SDS011;13298;48.792;9.154;2023-05-14T06:31:02;11.73;;;8.02;;
25341;SDS011;13298;48.792;9.154;2023-05-14T06:33:28;9.57;;;7.45;;
25341;SDS011;13298;48.792;9.154;2023-05-14T06:35:55;10.63;;;7.57;;
25341;SDS011;13298;48.792;9.154;2023-05-14T06:38:22;11.18;;;8.35;;
25341;SDS011;13298;48.792;9.154;2023-05-14T06:40:49;8.10;;;6.90;;
25341;SDS011;13298;48.792;9.154;2023-05-14T06:43:14;12.65;;;7.22;;
25341;SDS011;13298;48.792;9.154;2023-05-14T06:45:40;10.25;;;7.40;;
25341;SDS011;13298;48.792;9.154;2023-05-14T06:48:06;9.13;;;7.53;;
25341;SDS011;13298;48.792;9.154;2023-05-14T06:50:34;8.88;;;6.53;;
25341;SDS011;13298;48.792;9.154;2023-05-14T06:52:59;10.73;;;6.40;;
25341;SDS011;13298;48.792;9.154;2023-05-14T06:55:25;9.45;;;7.07;;
25341;SDS011;13298;48.792;9.154;2023-05-14T06:57:51;9.85;;;6.80;;
25341;SDS011;13298;48.792;9.154;2023-05-14T07:00:17;7.82;;;6.53;;
25341;SDS011;13298;48.792;9.154;2023-05-14T07:02:43;7.57;;;6.30;;
25341;SDS011;13298;48.792;9.154;2023-05-14T07:05:09;8.18;;;6.93;;
25341;SDS011;13298;48.792;9.154;2023-05-14T07:07:35;8.23;;;6.47;;
25341;SDS011;13298;48.792;9.154;2023-05-14T07:10:01;7.63;;;6.30;;
25341;SDS011;13298;48.792;9.154;2023-05-14T07:12:26;7.15;;;5.97;;
25341;SDS011;13298;48.792;9.154;2023-05-14T07:14:52;9.07;;;6.82;;
25341;SDS011;13298;48.792;9.154;2023-05-14T07:17:18;9.02;;;6.43;;
25341;SDS011;13298;48.792;9.154;2023-05-14T07:19:43;7.80;;;6.25;;
25341;SDS011;13298;48.792;9.154;2023-05-14T07:22:09;8.68;;;6.68;;
25341;SDS011;13298;48.792;9.154;2023-05-14T07:24:35;8.60;;;6.38;;
25341;SDS011;13298;48.792;9.154;2023-05-14T07:27:01;9.88;;;6.03;;
25341;SDS011;13298;48.792;9.154;2023-05-14T07:29:26;6.75;;;6.03;;
25341;SDS011;13298;48.792;9.154;2023-05-14T07:31:54;10.32;;;7.53;;
25341;SDS011;13298;48.792;9.154;2023-05-14T07:34:19;9.45;;;6.60;;
25341;SDS011;13298;48.792;9.154;2023-05-14T07:36:45;8.38;;;6.43;;
25341;SDS011;13298;48.792;9.154;2023-05-14T07:39:11;9.45;;;6.90;;
25341;SDS011;13298;48.792;9.154;2023-05-14T07:41:36;7.97;;;6.53;;
25341;SDS011;13298;48.792;9.154;2023-05-14T07:44:02;8.50;;;6.63;;
25341;SDS011;13298;48.792;9.154;2023-05-14T07:46:28;10.13;;;6.95;;
25341;SDS011;13298;48.792;9.154;2023-05-14T07:48:54;8.38;;;6.50;;
25341;SDS011;13298;48.792;9.154;2023-05-14T07:51:20;7.72;;;6.55;;
25341;SDS011;13298;48.792;9.154;2023-05-14T07:53:45;9.32;;;6.85;;
25341;SDS011;13298;48.792;9.154;2023-05-14T07:56:11;10.27;;;7.10;;
25341;SDS011;13298;48.792;9.154;2023-05-14T07:58:37;7.78;;;6.22;;
25341;SDS011;13298;48.792;9.154;2023-05-14T08:01:02;8.55;;;6.22;;
25341;SDS011;13298;48.792;9.154;2023-05-14T08:03:31;7.70;;;6.28;;
25341;SDS011;13298;48.792;9.154;2023-05-14T08:05:57;9.07;;;7.10;;
25341;SDS011;13298;48.792;9.154;2023-05-14T08:08:23;9.98;;;6.55;;
25341;SDS011;13298;48.792;9.154;2023-05-14T08:10:49;8.65;;;7.03;;
25341;SDS011;13298;48.792;9.154;2023-05-14T08:13:15;10.70;;;7.47;;
25341;SDS011;13298;48.792;9.154;2023-05-14T08:15:40;9.30;;;6.38;;
25341;SDS011;13298;48.792;9.154;2023-05-14T08:18:06;8.60;;;6.65;;
25341;SDS011;13298;48.792;9.154;2023-05-14T08:20:32;10.52;;;6.97;;
25341;SDS011;13298;48.792;9.154;2023-05-14T08:22:57;7.00;;;6.15;;
25341;SDS011;13298;48.792;9.154;2023-05-14T08:25:23;9.63;;;6.60;;
25341;SDS011;13298;48.792;9.154;2023-05-14T08:27:49;7.45;;;5.80;;
25341;SDS011;13298;48.792;9.154;2023-05-14T08:30:15;6.65;;;5.40;;
25341;SDS011;13298;48.792;9.154;2023-05-14T08:32:41;7.63;;;6.82;;
25341;SDS011;13298;48.792;9.154;2023-05-14T08:35:07;9.75;;;7.22;;
25341;SDS011;13298;48.792;9.154;2023-05-14T08:37:33;7.05;;;5.65;;
25341;SDS011;13298;48.792;9.154;2023-05-14T08:39:59;7.43;;;5.88;;
25341;SDS011;13298;48.792;9.154;2023-05-14T08:42:24;7.95;;;6.15;;
25341;SDS011;13298;48.792;9.154;2023-05-14T08:44:54;7.93;;;5.35;;
25341;SDS011;13298;48.792;9.154;2023-05-14T08:47:26;8.25;;;5.93;;
25341;SDS011;13298;48.792;9.154;2023-05-14T08:50:01;10.07;;;6.18;;
25341;SDS011;13298;48.792;9.154;2023-05-14T08:52:29;9.63;;;6.90;;
25341;SDS011;13298;48.792;9.154;2023-05-14T08:54:57;9.98;;;7.88;;
25341;SDS011;13298;48.792;9.154;2023-05-14T08:57:27;12.82;;;6.18;;
25341;SDS011;13298;48.792;9.154;2023-05-14T08:59:56;7.05;;;5.15;;
25341;SDS011;13298;48.792;9.154;2023-05-14T09:02:23;9.35;;;6.57;;
25341;SDS011;13298;48.792;9.154;2023-05-14T09:04:54;6.78;;;5.88;;
25341;SDS011;13298;48.792;9.154;2023-05-14T09:07:22;8.90;;;7.32;;
25341;SDS011;13298;48.792;9.154;2023-05-14T09:09:49;8.35;;;7.00;;
25341;SDS011;13298;48.792;9.154;2023-05-14T09:12:15;8.13;;;6.70;;
25341;SDS011;13298;48.792;9.154;2023-05-14T09:14:41;8.40;;;6.30;;
25341;SDS011;13298;48.792;9.154;2023-05-14T09:17:07;10.35;;;8.10;;
25341;SDS011;13298;48.792;9.154;2023-05-14T09:19:36;10.05;;;8.38;;
25341;SDS011;13298;48.792;9.154;2023-05-14T09:22:09;11.75;;;8.70;;
25341;SDS011;13298;48.792;9.154;2023-05-14T09:24:37;10.27;;;8.77;;
25341;SDS011;13298;48.792;9.154;2023-05-14T09:27:03;13.48;;;8.80;;
25341;SDS011;13298;48.792;9.154;2023-05-14T09:29:30;9.50;;;7.70;;
25341;SDS011;13298;48.792;9.154;2023-05-14T09:31:56;9.57;;;7.60;;
25341;SDS011;13298;48.792;9.154;2023-05-14T09:34:25;10.60;;;8.77;;
25341;SDS011;13298;48.792;9.154;2023-05-14T09:36:56;10.05;;;7.65;;
25341;SDS011;13298;48.792;9.154;2023-05-14T09:39:26;11.85;;;7.85;;
25341;SDS011;13298;48.792;9.154;2023-05-14T09:41:53;10.52;;;8.55;;
25341;SDS011;13298;48.792;9.154;2023-05-14T09:44:20;7.93;;;5.93;;
25341;SDS011;13298;48.792;9.154;2023-05-14T09:46:46;9.02;;;6.68;;
25341;SDS011;13298;48.792;9.154;2023-05-14T09:49:13;8.35;;;6.55;;
25341;SDS011;13298;48.792;9.154;2023-05-14T09:51:39;7.82;;;5.88;;
25341;SDS011;13298;48.792;9.154;2023-05-14T09:54:05;8.65;;;6.32;;
25341;SDS011;13298;48.792;9.154;2023-05-14T09:56:32;8.32;;;6.60;;
25341;SDS011;13298;48.792;9.154;2023-05-14T09:58:59;8.48;;;5.38;;
25341;SDS011;13298;48.792;9.154;2023-05-14T10:01:25;6.65;;;5.00;;
25341;SDS011;13298;48.792;9.154;2023-05-14T10:03:54;7.15;;;5.18;;
25341;SDS011;13298;48.792;9.154;2023-05-14T10:06:21;7.85;;;6.47;;
25341;SDS011;13298;48.792;9.154;2023-05-14T10:08:55;8.32;;;5.97;;
25341;SDS011;13298;48.792;9.154;2023-05-14T10:11:27;7.22;;;6.38;;
25341;SDS011;13298;48.792;9.154;2023-05-14T10:13:59;7.68;;;6.07;;
25341;SDS011;13298;48.792;9.154;2023-05-14T10:16:48;7.85;;;5.88;;
25341;SDS011;13298;48.792;9.154;2023-05-14T10:19:16;7.75;;;5.93;;
25341;SDS011;13298;48.792;9.154;2023-05-14T10:21:46;5.68;;;4.72;;
25341;SDS011;13298;48.792;9.154;2023-05-14T10:24:17;7.95;;;4.70;;
25341;SDS011;13298;48.792;9.154;2023-05-14T10:26:44;4.75;;;4.00;;
25341;SDS011;13298;48.792;9.154;2023-05-14T10:29:10;7.38;;;5.78;;
25341;SDS011;13298;48.792;9.154;2023-05-14T10:34:29;5.38;;;4.68;;
25341;SDS011;13298;48.792;9.154;2023-05-14T10:37:14;6.15;;;4.78;;
25341;SDS011;13298;48.792;9.154;2023-05-14T10:39:52;6.68;;;5.05;;
25341;SDS011;13298;48.792;9.154;2023-05-14T10:42:33;7.88;;;5.47;;
25341;SDS011;13298;48.792;9.154;2023-05-14T10:45:05;7.90;;;6.40;;
25341;SDS011;13298;48.792;9.154;2023-05-14T10:47:33;7.55;;;5.57;;
25341;SDS011;13298;48.792;9.154;2023-05-14T10:50:02;6.40;;;4.80;;
25341;SDS011;13298;48.792;9.154;2023-05-14T10:52:30;7.47;;;4.32;;
25341;SDS011;13298;48.792;9.154;2023-05-14T10:54:56;7.60;;;5.00;;
25341;SDS011;13298;48.792;9.154;2023-05-14T10:57:28;6.15;;;4.85;;
25341;SDS011;13298;48.792;9.154;2023-05-14T10:59:56;5.50;;;3.97;;
25341;SDS011;13298;48.792;9.154;2023-05-14T11:02:24;4.80;;;4.20;;
25341;SDS011;13298;48.792;9.154;2023-05-14T11:04:58;4.80;;;4.10;;
25341;SDS011;13298;48.792;9.154;2023-05-14T11:07:42;5.00;;;4.32;;
25341;SDS011;13298;48.792;9.154;2023-05-14T11:10:13;4.22;;;3.83;;
25341;SDS011;13298;48.792;9.154;2023-05-14T11:12:42;5.35;;;4.13;;
25341;SDS011;13298;48.792;9.154;2023-05-14T11:15:13;7.38;;;5.80;;
25341;SDS011;13298;48.792;9.154;2023-05-14T11:17:50;7.65;;;5.82;;
25341;SDS011;13298;48.792;9.154;2023-05-14T11:20:17;7.47;;;5.95;;
25341;SDS011;13298;48.792;9.154;2023-05-14T11:22:44;7.10;;;5.65;;
25341;SDS011;13298;48.792;9.154;2023-05-14T11:25:13;7.70;;;5.43;;
25341;SDS011;13298;48.792;9.154;2023-05-14T11:27:39;7.15;;;5.82;;
25341;SDS011;13298;48.792;9.154;2023-05-14T11:30:11;6.85;;;5.70;;
25341;SDS011;13298;48.792;9.154;2023-05-14T11:32:38;7.07;;;6.00;;
25341;SDS011;13298;48.792;9.154;2023-05-14T11:35:04;6.55;;;5.78;;
25341;SDS011;13298;48.792;9.154;2023-05-14T11:37:30;6.97;;;5.18;;
25341;SDS011;13298;48.792;9.154;2023-05-14T11:39:57;5.60;;;4.93;;
25341;SDS011;13298;48.792;9.154;2023-05-14T11:42:24;5.05;;;4.05;;
25341;SDS011;13298;48.792;9.154;2023-05-14T11:44:50;7.90;;;5.03;;
25341;SDS011;13298;48.792;9.154;2023-05-14T11:47:18;6.95;;;4.63;;
25341;SDS011;13298;48.792;9.154;2023-05-14T11:49:45;6.57;;;5.40;;
25341;SDS011;13298;48.792;9.154;2023-05-14T11:52:12;5.13;;;4.30;;
25341;SDS011;13298;48.792;9.154;2023-05-14T11:54:40;5.20;;;3.78;;
25341;SDS011;13298;48.792;9.154;2023-05-14T11:57:26;5.82;;;4.60;;
25341;SDS011;13298;48.792;9.154;2023-05-14T11:59:55;4.90;;;4.40;;
25341;SDS011;13298;48.792;9.154;2023-05-14T12:02:21;7.13;;;4.80;;
25341;SDS011;13298;48.792;9.154;2023-05-14T12:04:50;5.80;;;3.92;;
25341;SDS011;13298;48.792;9.154;2023-05-14T12:07:17;6.82;;;4.82;;
25341;SDS011;13298;48.792;9.154;2023-05-14T12:09:44;5.53;;;4.88;;
25341;SDS011;13298;48.792;9.154;2023-05-14T12:12:13;6.68;;;4.68;;
25341;SDS011;13298;48.792;9.154;2023-05-14T12:14:44;8.27;;;5.07;;
25341;SDS011;13298;48.792;9.154;2023-05-14T12:17:14;5.72;;;4.43;;
25341;SDS011;13298;48.792;9.154;2023-05-14T12:19:52;4.65;;;3.60;;
25341;SDS011;13298;48.792;9.154;2023-05-14T12:22:21;6.07;;;4.90;;
25341;SDS011;13298;48.792;9.154;2023-05-14T12:24:54;5.50;;;4.82;;
25341;SDS011;13298;48.792;9.154;2023-05-14T12:27:22;5.78;;;5.03;;
25341;SDS011;13298;48.792;9.154;2023-05-14T12:29:50;5.85;;;4.78;;
25341;SDS011;13298;48.792;9.154;2023-05-14T12:32:24;5.03;;;3.65;;
25341;SDS011;13298;48.792;9.154;2023-05-14T12:34:50;5.88;;;4.22;;
25341;SDS011;13298;48.792;9.154;2023-05-14T12:37:16;5.65;;;4.72;;
25341;SDS011;13298;48.792;9.154;2023-05-14T12:39:42;7.40;;;4.75;;
25341;SDS011;13298;48.792;9.154;2023-05-14T12:42:08;7.22;;;4.88;;
25341;SDS011;13298;48.792;9.154;2023-05-14T12:44:33;7.60;;;4.25;;
25341;SDS011;13298;48.792;9.154;2023-05-14T12:46:59;5.88;;;4.30;;
25341;SDS011;13298;48.792;9.154;2023-05-14T12:49:25;5.30;;;3.67;;
25341;SDS011;13298;48.792;9.154;2023-05-14T12:51:51;4.20;;;3.53;;
25341;SDS011;13298;48.792;9.154;2023-05-14T12:54:17;4.20;;;3.30;;
25341;SDS011;13298;48.792;9.154;2023-05-14T12:56:43;3.13;;;2.83;;
25341;SDS011;13298;48.792;9.154;2023-05-14T12:59:09;4.55;;;3.33;;
25341;SDS011;13298;48.792;9.154;2023-05-14T13:01:34;5.10;;;3.63;;
25341;SDS011;13298;48.792;9.154;2023-05-14T13:04:02;3.80;;;3.35;;
25341;SDS011;13298;48.792;9.154;2023-05-14T13:06:28;6.85;;;3.30;;
25341;SDS011;13298;48.792;9.154;2023-05-14T13:08:55;5.22;;;3.55;;
25341;SDS011;13298;48.792;9.154;2023-05-14T13:11:23;4.43;;;3.33;;
25341;SDS011;13298;48.792;9.154;2023-05-14T13:13:51;3.50;;;3.17;;
25341;SDS011;13298;48.792;9.154;2023-05-14T13:16:16;5.20;;;3.78;;
25341;SDS011;13298;48.792;9.154;2023-05-14T13:18:42;3.65;;;3.15;;
25341;SDS011;13298;48.792;9.154;2023-05-14T13:21:08;4.35;;;3.65;;
25341;SDS011;13298;48.792;9.154;2023-05-14T13:23:33;4.72;;;3.38;;
25341;SDS011;13298;48.792;9.154;2023-05-14T13:25:59;3.65;;;3.00;;
25341;SDS011;13298;48.792;9.154;2023-05-14T13:28:25;4.57;;;3.53;;
25341;SDS011;13298;48.792;9.154;2023-05-14T13:31:04;4.30;;;3.58;;
25341;SDS011;13298;48.792;9.154;2023-05-14T13:33:36;4.38;;;3.70;;
25341;SDS011;13298;48.792;9.154;2023-05-14T13:36:05;3.72;;;3.03;;
25341;SDS011;13298;48.792;9.154;2023-05-14T13:38:32;5.00;;;3.63;;
25341;SDS011;13298;48.792;9.154;2023-05-14T13:40:58;5.35;;;3.83;;
25341;SDS011;13298;48.792;9.154;2023-05-14T13:43:27;6.15;;;2.92;;
25341;SDS011;13298;48.792;9.154;2023-05-14T13:45:56;3.72;;;3.15;;
25341;SDS011;13298;48.792;9.154;2023-05-14T13:48:23;5.95;;;3.30;;
25341;SDS011;13298;48.792;9.154;2023-05-14T13:50:49;3.78;;;3.30;;
25341;SDS011;13298;48.792;9.154;2023-05-14T13:53:16;3.22;;;2.90;;
25341;SDS011;13298;48.792;9.154;2023-05-14T13:55:46;9.80;;;3.40;;
25341;SDS011;13298;48.792;9.154;2023-05-14T13:58:12;5.00;;;3.47;;
25341;SDS011;13298;48.792;9.154;2023-05-14T14:00:39;4.50;;;3.15;;
25341;SDS011;13298;48.792;9.154;2023-05-14T14:03:05;4.80;;;3.25;;
25341;SDS011;13298;48.792;9.154;2023-05-14T14:05:31;6.68;;;3.22;;
25341;SDS011;13298;48.792;9.154;2023-05-14T14:07:58;4.07;;;3.10;;
25341;SDS011;13298;48.792;9.154;2023-05-14T14:10:24;5.07;;;2.72;;
25341;SDS011;13298;48.792;9.154;2023-05-14T14:12:49;4.22;;;2.70;;
25341;SDS011;13298;48.792;9.154;2023-05-14T14:15:16;2.60;;;2.40;;
25341;SDS011;13298;48.792;9.154;2023-05-14T14:17:41;2.58;;;2.15;;
25341;SDS011;13298;48.792;9.154;2023-05-14T14:20:07;3.72;;;2.67;;
25341;SDS011;13298;48.792;9.154;2023-05-14T14:22:34;3.40;;;2.40;;
25341;SDS011;13298;48.792;9.154;2023-05-14T14:25:00;4.15;;;2.60;;
25341;SDS011;13298;48.792;9.154;2023-05-14T14:27:26;3.25;;;2.38;;
25341;SDS011;13298;48.792;9.154;2023-05-14T14:29:55;3.83;;;2.30;;
25341;SDS011;13298;48.792;9.154;2023-05-14T14:32:20;2.70;;;2.22;;
25341;SDS011;13298;48.792;9.154;2023-05-14T14:34:46;3.75;;;3.00;;
25341;SDS011;13298;48.792;9.154;2023-05-14T14:37:12;3.33;;;2.42;;
25341;SDS011;13298;48.792;9.154;2023-05-14T14:39:37;3.17;;;2.53;;
25341;SDS011;13298;48.792;9.154;2023-05-14T14:42:03;2.30;;;2.10;;
25341;SDS011;13298;48.792;9.154;2023-05-14T14:44:29;4.82;;;2.83;;
25341;SDS011;13298;48.792;9.154;2023-05-14T14:46:55;4.53;;;3.38;;
25341;SDS011;13298;48.792;9.154;2023-05-14T14:49:21;3.95;;;3.30;;